createdAt,value
2022-11-06T00:01:01.138Z,80.63
2022-11-06T00:03:30.066Z,80.35
2022-11-06T00:06:15.830Z,79.96
2022-11-06T00:08:44.886Z,80.20
2022-11-06T00:11:18.854Z,79.87
2022-11-06T00:13:47.763Z,79.33
2022-11-06T00:16:14.751Z,80.03
2022-11-06T00:18:41.611Z,80.45
2022-11-06T00:21:12.362Z,79.82
2022-11-06T00:23:39.020Z,79.57
2022-11-06T00:26:09.409Z,79.52
2022-11-06T00:28:36.060Z,78.74
2022-11-06T00:31:03.801Z,79.14
2022-11-06T00:33:30.471Z,79.32
2022-11-06T00:35:57.074Z,79.49
2022-11-06T00:38:26.252Z,79.65
2022-11-06T00:40:55.199Z,79.08
2022-11-06T00:43:26.262Z,80.10
2022-11-06T00:46:00.470Z,79.82
2022-11-06T00:48:29.234Z,79.69
2022-11-06T00:50:55.826Z,79.33
2022-11-06T00:53:22.392Z,79.43
2022-11-06T00:55:53.897Z,78.66
2022-11-06T00:58:20.407Z,78.11
2022-11-06T01:00:49.243Z,79.02
2022-11-06T01:03:15.800Z,78.22
2022-11-06T01:05:42.376Z,79.22
2022-11-06T01:08:08.934Z,79.12
2022-11-06T01:10:37.150Z,78.61
2022-11-06T01:13:04.077Z,78.68
2022-11-06T01:15:33.008Z,78.78
2022-11-06T01:18:03.277Z,78.51
2022-11-06T01:20:29.824Z,78.01
2022-11-06T01:22:56.314Z,78.48
2022-11-06T01:25:22.824Z,78.17
2022-11-06T01:27:49.358Z,77.62
2022-11-06T01:30:15.860Z,78.68
2022-11-06T01:32:44.899Z,78.41
2022-11-06T01:35:13.804Z,77.70
2022-11-06T01:37:45.398Z,78.10
2022-11-06T01:40:12.001Z,78.32
2022-11-06T01:42:38.490Z,78.20
2022-11-06T01:45:11.416Z,78.33
2022-11-06T01:47:37.904Z,77.98
2022-11-06T01:50:07.716Z,78.31
2022-11-06T01:52:36.693Z,78.63
2022-11-06T01:55:14.790Z,79.11
2022-11-06T01:57:41.564Z,78.73
2022-11-06T02:00:08.708Z,79.16
2022-11-06T02:02:37.787Z,79.16
2022-11-06T02:05:07.006Z,79.17
2022-11-06T02:07:33.722Z,79.31
2022-11-06T02:10:00.633Z,79.25
2022-11-06T02:12:36.571Z,79.32
2022-11-06T02:15:12.170Z,79.70
2022-11-06T02:17:57.416Z,80.16
2022-11-06T02:20:28.866Z,80.42
2022-11-06T02:23:00.653Z,80.89
2022-11-06T02:25:46.002Z,80.70
2022-11-06T02:28:16.082Z,80.09
2022-11-06T02:30:44.301Z,80.08
2022-11-06T02:33:12.653Z,79.61
2022-11-06T02:35:41.208Z,79.86
2022-11-06T02:38:10.973Z,80.25
2022-11-06T02:40:42.435Z,80.77
2022-11-06T02:43:11.763Z,80.67
2022-11-06T02:45:40.058Z,80.63
2022-11-06T02:48:09.258Z,80.93
2022-11-06T02:50:39.484Z,80.63
2022-11-06T02:53:06.832Z,80.25
2022-11-06T02:56:03.511Z,80.58
2022-11-06T02:58:53.462Z,80.18
2022-11-06T03:01:27.614Z,80.39
2022-11-06T03:03:57.206Z,80.26
2022-11-06T03:06:26.161Z,80.71
2022-11-06T03:08:58.969Z,80.01
2022-11-06T03:11:26.496Z,80.26
2022-11-06T03:13:59.528Z,80.46
2022-11-06T03:16:36.424Z,80.66
2022-11-06T03:19:02.912Z,80.81
2022-11-06T03:21:37.430Z,81.10
2022-11-06T03:24:10.661Z,81.30
2022-11-06T03:26:37.634Z,80.60
2022-11-06T03:29:09.140Z,80.47
2022-11-06T03:31:41.079Z,80.37
2022-11-06T03:34:08.791Z,80.38
2022-11-06T03:36:42.022Z,80.73
2022-11-06T03:39:10.657Z,80.32
2022-11-06T03:41:48.258Z,79.97
2022-11-06T03:44:18.968Z,80.26
2022-11-06T03:46:47.354Z,79.71
2022-11-06T03:49:15.480Z,79.51
2022-11-06T03:51:46.591Z,79.54
2022-11-06T03:54:26.361Z,80.18
2022-11-06T03:56:57.490Z,79.63
2022-11-06T03:59:25.377Z,79.83
2022-11-06T04:01:52.079Z,80.32
2022-11-06T04:04:22.944Z,80.96
2022-11-06T04:06:53.994Z,81.39
2022-11-06T04:09:39.338Z,81.89
2022-11-06T04:12:27.464Z,81.20
2022-11-06T04:14:59.296Z,80.67
2022-11-06T04:17:28.741Z,81.12
2022-11-06T04:19:56.410Z,79.96
2022-11-06T04:22:34.979Z,79.93
2022-11-06T04:25:34.249Z,79.95
2022-11-06T04:28:20.055Z,80.33
2022-11-06T04:30:51.188Z,80.93
2022-11-06T04:33:25.189Z,81.00
2022-11-06T04:36:03.311Z,81.11
2022-11-06T04:38:35.694Z,81.96
2022-11-06T04:41:05.284Z,81.09
2022-11-06T04:43:44.002Z,80.75
2022-11-06T04:46:11.481Z,81.01
2022-11-06T04:48:41.171Z,80.62
2022-11-06T04:51:10.763Z,81.35
2022-11-06T04:53:37.430Z,81.07
2022-11-06T04:56:10.881Z,80.45
2022-11-06T04:58:38.459Z,79.83
2022-11-06T05:01:07.603Z,81.12
2022-11-06T05:03:34.116Z,80.73
2022-11-06T05:06:00.633Z,80.24
2022-11-06T05:08:29.538Z,79.91
2022-11-06T05:10:56.097Z,80.56
2022-11-06T05:13:23.046Z,80.71
2022-11-06T05:15:58.222Z,80.97
2022-11-06T05:18:25.263Z,80.43
2022-11-06T05:21:14.340Z,80.44
2022-11-06T05:23:43.079Z,79.91
2022-11-06T05:26:09.628Z,79.38
2022-11-06T05:28:36.159Z,79.82
2022-11-06T05:31:05.320Z,79.88
2022-11-06T05:33:32.707Z,79.60
2022-11-06T05:36:03.210Z,78.90
2022-11-06T05:38:32.474Z,78.26
2022-11-06T05:40:58.986Z,78.05
2022-11-06T05:43:25.816Z,77.66
2022-11-06T05:45:56.973Z,78.71
2022-11-06T05:48:25.582Z,78.65
2022-11-06T05:50:54.503Z,79.02
2022-11-06T05:53:23.497Z,78.42
2022-11-06T05:55:52.533Z,78.07
2022-11-06T05:58:20.082Z,77.52
2022-11-06T06:00:49.933Z,77.11
2022-11-06T06:03:16.556Z,77.67
2022-11-06T06:05:43.130Z,77.13
2022-11-06T06:08:09.595Z,76.38
2022-11-06T06:10:42.481Z,76.45
2022-11-06T06:13:11.265Z,76.80
2022-11-06T06:15:38.486Z,76.93
2022-11-06T06:18:07.704Z,76.90
2022-11-06T06:20:34.294Z,76.65
2022-11-06T06:23:00.891Z,77.27
2022-11-06T06:25:28.384Z,77.08
2022-11-06T06:27:57.396Z,77.59
2022-11-06T06:30:24.149Z,78.02
2022-11-06T06:32:51.148Z,77.51
2022-11-06T06:35:20.657Z,77.69
2022-11-06T06:37:50.968Z,76.89
2022-11-06T06:40:21.033Z,77.26
2022-11-06T06:42:47.507Z,75.83
2022-11-06T06:45:14.130Z,75.94
2022-11-06T06:47:40.693Z,75.93
2022-11-06T06:50:09.901Z,76.51
2022-11-06T06:52:36.432Z,76.79
2022-11-06T06:55:02.984Z,76.38
2022-11-06T06:57:29.462Z,76.08
2022-11-06T06:59:56.395Z,75.33
2022-11-06T07:02:22.969Z,76.89
2022-11-06T07:04:49.846Z,76.60
2022-11-06T07:07:16.483Z,76.96
2022-11-06T07:09:43.085Z,76.38
2022-11-06T07:12:09.616Z,76.05
2022-11-06T07:14:36.313Z,76.55
2022-11-06T07:17:02.838Z,76.64
2022-11-06T07:19:29.320Z,76.90
2022-11-06T07:21:57.944Z,77.07
2022-11-06T07:24:27.641Z,76.30
2022-11-06T07:26:54.151Z,76.59
2022-11-06T07:29:20.621Z,75.71
2022-11-06T07:31:47.190Z,75.46
2022-11-06T07:34:13.820Z,76.19
2022-11-06T07:36:40.346Z,75.55
2022-11-06T07:39:06.861Z,75.27
2022-11-06T07:41:33.449Z,74.93
2022-11-06T07:44:00.357Z,75.93
2022-11-06T07:46:29.404Z,76.22
2022-11-06T07:48:56.021Z,75.91
2022-11-06T07:51:22.526Z,76.26
2022-11-06T07:53:49.164Z,76.00
2022-11-06T07:56:15.682Z,75.02
2022-11-06T07:58:42.182Z,74.92
2022-11-06T08:01:17.940Z,75.04
2022-11-06T08:03:45.289Z,75.59
2022-11-06T08:06:14.211Z,75.69
2022-11-06T08:08:40.752Z,74.66
2022-11-06T08:11:10.270Z,75.08
2022-11-06T08:13:37.009Z,75.88
2022-11-06T08:16:16.123Z,75.02
2022-11-06T08:18:45.588Z,75.24
2022-11-06T08:21:12.143Z,74.84
2022-11-06T08:23:41.218Z,75.30
2022-11-06T08:26:12.734Z,76.19
2022-11-06T08:28:39.249Z,75.88
2022-11-06T08:31:09.233Z,75.65
2022-11-06T08:33:36.186Z,75.32
2022-11-06T08:36:03.683Z,75.52
2022-11-06T08:38:32.768Z,74.59
2022-11-06T08:41:03.612Z,75.05
2022-11-06T08:43:30.103Z,75.20
2022-11-06T08:45:56.667Z,74.03
2022-11-06T08:48:23.213Z,74.35
2022-11-06T08:50:54.686Z,75.16
2022-11-06T08:53:21.288Z,74.85
2022-11-06T08:55:50.339Z,74.26
2022-11-06T08:58:17.147Z,74.71
2022-11-06T09:00:43.773Z,75.22
2022-11-06T09:03:15.031Z,74.99
2022-11-06T09:05:42.863Z,74.76
2022-11-06T09:08:12.587Z,74.50
2022-11-06T09:10:39.753Z,74.41
2022-11-06T09:13:06.328Z,74.25
2022-11-06T09:15:33.064Z,74.18
2022-11-06T09:18:01.888Z,74.11
2022-11-06T09:20:30.843Z,74.20
2022-11-06T09:23:06.867Z,73.74
2022-11-06T09:25:33.474Z,73.60
2022-11-06T09:28:02.480Z,72.58
2022-11-06T09:30:30.159Z,72.97
2022-11-06T09:32:57.741Z,72.04
2022-11-06T09:35:25.075Z,72.12
2022-11-06T09:37:51.725Z,72.26
2022-11-06T09:40:18.227Z,71.38
2022-11-06T09:42:50.946Z,69.49
2022-11-06T09:45:22.881Z,70.75
2022-11-06T09:47:55.947Z,70.49
2022-11-06T09:50:25.243Z,71.57
2022-11-06T09:52:52.927Z,71.91
2022-11-06T09:55:24.772Z,70.91
2022-11-06T09:57:57.723Z,71.85
2022-11-06T10:00:24.407Z,71.96
2022-11-06T10:03:05.808Z,71.23
2022-11-06T10:05:33.722Z,70.08
2022-11-06T10:08:00.844Z,69.89
2022-11-06T10:10:39.084Z,69.62
2022-11-06T10:13:07.936Z,69.91
2022-11-06T10:15:36.930Z,69.12
2022-11-06T10:18:13.380Z,69.01
2022-11-06T10:20:47.954Z,68.11
2022-11-06T10:23:50.066Z,67.91
2022-11-06T10:26:20.062Z,65.54
2022-11-06T10:28:59.815Z,66.14
2022-11-06T10:31:26.343Z,68.15
2022-11-06T10:34:08.162Z,67.92
2022-11-06T10:36:48.716Z,67.66
2022-11-06T10:39:23.189Z,67.39
2022-11-06T10:41:58.023Z,67.23
2022-11-06T10:44:36.281Z,67.98
2022-11-06T10:47:21.698Z,68.55
2022-11-06T10:49:50.531Z,67.68
2022-11-06T10:52:28.712Z,67.28
2022-11-06T10:55:07.703Z,66.58
2022-11-06T10:57:37.459Z,67.85
2022-11-06T11:00:08.760Z,66.98
2022-11-06T11:02:36.050Z,67.39
2022-11-06T11:05:07.519Z,67.30
2022-11-06T11:07:33.999Z,67.34
2022-11-06T11:10:02.515Z,66.83
2022-11-06T11:12:32.967Z,66.57
2022-11-06T11:15:16.263Z,67.83
2022-11-06T11:18:02.959Z,66.30
2022-11-06T11:20:30.988Z,67.84
2022-11-06T11:23:16.428Z,67.81
2022-11-06T11:25:44.596Z,66.98
2022-11-06T11:28:20.997Z,67.24
2022-11-06T11:30:54.169Z,66.72
2022-11-06T11:33:26.493Z,67.00
2022-11-06T11:35:53.402Z,68.28
2022-11-06T11:38:23.005Z,67.63
2022-11-06T11:40:52.021Z,67.24
2022-11-06T11:43:22.141Z,68.29
2022-11-06T11:46:05.404Z,68.27
2022-11-06T11:49:07.565Z,67.26
2022-11-06T11:51:34.093Z,68.13
2022-11-06T11:54:06.066Z,66.86
2022-11-06T11:57:02.366Z,67.29
2022-11-06T11:59:23.085Z,67.23
2022-11-06T12:01:49.912Z,66.90
2022-11-06T12:04:18.117Z,67.12
2022-11-06T12:06:51.809Z,67.16
2022-11-06T12:09:21.050Z,67.44
2022-11-06T12:11:47.779Z,67.47
2022-11-06T12:14:33.243Z,67.09
2022-11-06T12:17:09.184Z,66.66
2022-11-06T12:19:36.065Z,65.38
2022-11-06T12:22:10.966Z,64.73
2022-11-06T12:24:47.355Z,64.02
2022-11-06T12:27:19.787Z,64.23
2022-11-06T12:29:47.897Z,63.40
2022-11-06T12:32:26.437Z,63.44
2022-11-06T12:34:52.975Z,62.12
2022-11-06T12:37:22.629Z,62.84
2022-11-06T12:40:25.030Z,60.99
2022-11-06T12:43:03.214Z,62.71
2022-11-06T12:45:38.638Z,62.46
2022-11-06T12:48:34.527Z,62.14
2022-11-06T12:51:04.590Z,61.68
2022-11-06T12:53:37.277Z,61.47
2022-11-06T12:56:24.246Z,61.79
2022-11-06T12:59:06.160Z,62.11
2022-11-06T13:01:32.855Z,61.88
2022-11-06T13:04:21.602Z,61.42
2022-11-06T13:07:07.194Z,61.22
2022-11-06T13:09:44.040Z,61.71
2022-11-06T13:12:13.630Z,61.99
2022-11-06T13:14:47.336Z,60.37
2022-11-06T13:17:13.810Z,61.98
2022-11-06T13:19:43.105Z,59.12
2022-11-06T13:22:19.042Z,61.02
2022-11-06T13:24:51.711Z,60.97
2022-11-06T13:27:44.791Z,62.51
2022-11-06T13:30:20.380Z,62.71
2022-11-06T13:33:08.357Z,63.08
2022-11-06T13:35:38.778Z,62.76
2022-11-06T13:38:08.548Z,62.75
2022-11-06T13:40:45.335Z,62.13
2022-11-06T13:43:30.816Z,62.50
2022-11-06T13:45:59.674Z,62.04
2022-11-06T13:48:37.799Z,61.82
2022-11-06T13:51:24.664Z,61.62
2022-11-06T13:53:52.891Z,62.23
2022-11-06T13:56:36.194Z,61.89
2022-11-06T13:59:10.366Z,62.14
2022-11-06T14:01:43.148Z,62.44
2022-11-06T14:04:12.758Z,62.60
2022-11-06T14:06:39.310Z,61.93
2022-11-06T14:09:09.885Z,61.55
2022-11-06T14:11:42.376Z,61.17
2022-11-06T14:14:25.911Z,60.73
2022-11-06T14:17:11.183Z,60.43
2022-11-06T14:19:37.994Z,59.98
2022-11-06T14:22:19.350Z,60.37
2022-11-06T14:24:45.940Z,60.92
2022-11-06T14:27:32.426Z,61.08
2022-11-06T14:30:03.212Z,61.26
2022-11-06T14:32:32.712Z,61.94
2022-11-06T14:35:18.164Z,62.77
2022-11-06T14:37:45.771Z,63.08
2022-11-06T14:40:12.974Z,62.79
2022-11-06T14:42:42.682Z,62.90
2022-11-06T14:45:10.564Z,63.02
2022-11-06T14:47:39.546Z,63.55
2022-11-06T14:50:07.482Z,63.26
2022-11-06T14:52:45.341Z,64.40
2022-11-06T14:55:22.083Z,64.57
2022-11-06T14:57:50.006Z,64.85
2022-11-06T15:00:35.469Z,65.16
2022-11-06T15:03:04.707Z,65.38
2022-11-06T15:05:41.998Z,65.62
2022-11-06T15:08:09.445Z,65.75
2022-11-06T15:10:42.051Z,66.04
2022-11-06T15:13:16.351Z,66.37
2022-11-06T15:15:43.759Z,66.64
2022-11-06T15:18:10.592Z,66.58
2022-11-06T15:20:39.737Z,67.46
2022-11-06T15:23:14.635Z,68.15
2022-11-06T15:25:50.379Z,69.02
2022-11-06T15:28:21.166Z,69.65
2022-11-06T15:30:48.891Z,69.79
2022-11-06T15:33:19.222Z,70.17
2022-11-06T15:35:46.543Z,70.36
2022-11-06T15:38:17.343Z,70.74
2022-11-06T15:40:43.869Z,70.65
2022-11-06T15:43:19.563Z,70.94
2022-11-06T15:45:48.887Z,71.08
2022-11-06T15:48:24.125Z,71.06
2022-11-06T15:50:50.662Z,71.22
2022-11-06T15:53:18.840Z,71.13
2022-11-06T15:55:55.042Z,71.05
2022-11-06T15:58:29.548Z,71.13
2022-11-06T16:00:59.826Z,70.99
2022-11-06T16:03:31.312Z,71.08
2022-11-06T16:06:01.948Z,71.49
2022-11-06T16:08:29.071Z,71.51
2022-11-06T16:10:58.193Z,71.55
2022-11-06T16:13:25.351Z,71.42
2022-11-06T16:15:51.919Z,71.32
2022-11-06T16:18:38.553Z,71.25
2022-11-06T16:21:09.563Z,70.77
2022-11-06T16:23:43.761Z,70.92
2022-11-06T16:26:14.162Z,70.94
2022-11-06T16:28:44.370Z,71.19
2022-11-06T16:31:13.718Z,70.88
2022-11-06T16:33:53.183Z,71.01
2022-11-06T16:36:19.710Z,71.18
2022-11-06T16:38:46.902Z,71.33
2022-11-06T16:41:35.802Z,71.30
2022-11-06T16:44:26.070Z,71.26
2022-11-06T16:47:05.212Z,71.67
2022-11-06T16:49:35.738Z,71.83
2022-11-06T16:52:04.587Z,71.76
2022-11-06T16:54:32.457Z,71.38
2022-11-06T16:57:11.059Z,71.34
2022-11-06T16:59:37.966Z,70.94
2022-11-06T17:02:05.340Z,70.62
2022-11-06T17:04:32.047Z,70.38
2022-11-06T17:06:58.635Z,70.24
2022-11-06T17:09:28.393Z,70.77
2022-11-06T17:11:58.499Z,70.69
2022-11-06T17:14:25.227Z,71.07
2022-11-06T17:16:53.409Z,71.68
2022-11-06T17:19:20.319Z,71.57
2022-11-06T17:21:47.169Z,71.71
2022-11-06T17:27:00.471Z,72.07
2022-11-06T17:29:27.336Z,72.32
2022-11-06T17:31:54.289Z,72.24
2022-11-06T17:34:20.920Z,72.43
2022-11-06T17:36:47.443Z,72.40
2022-11-06T17:39:14.104Z,72.48
2022-11-06T17:41:45.573Z,72.54
2022-11-06T17:44:12.818Z,72.69
2022-11-06T17:46:41.247Z,72.82
2022-11-06T17:49:10.492Z,72.97
2022-11-06T17:51:58.424Z,72.99
2022-11-06T17:54:30.407Z,73.22
2022-11-06T17:56:57.300Z,73.20
2022-11-06T17:59:24.224Z,73.12
2022-11-06T18:01:53.964Z,73.13
2022-11-06T18:04:21.236Z,73.23
2022-11-06T18:06:51.008Z,73.39
2022-11-06T18:09:20.342Z,73.91
2022-11-06T18:11:49.561Z,73.96
2022-11-06T18:14:18.738Z,74.05
2022-11-06T18:16:48.357Z,74.38
2022-11-06T18:19:16.649Z,74.37
2022-11-06T18:21:43.165Z,74.46
2022-11-06T18:24:09.882Z,74.43
2022-11-06T18:26:40.149Z,74.17
2022-11-06T18:29:07.164Z,74.09
2022-11-06T18:31:34.022Z,74.12
2022-11-06T18:34:00.713Z,74.20
2022-11-06T18:36:27.219Z,74.33
2022-11-06T18:38:53.771Z,74.19
2022-11-06T18:41:21.134Z,74.12
2022-11-06T18:43:47.802Z,74.02
2022-11-06T18:46:17.843Z,73.98
2022-11-06T18:48:44.598Z,73.90
2022-11-06T18:51:33.354Z,73.72
2022-11-06T18:54:04.674Z,73.38
2022-11-06T18:56:31.596Z,73.21
2022-11-06T18:58:58.111Z,73.40
2022-11-06T19:01:25.827Z,73.41
2022-11-06T19:03:52.543Z,73.33
2022-11-06T19:06:21.982Z,73.39
2022-11-06T19:08:50.609Z,73.43
2022-11-06T19:11:17.766Z,73.30
2022-11-06T19:13:48.007Z,73.46
2022-11-06T19:16:15.612Z,73.50
2022-11-06T19:18:44.747Z,73.14
2022-11-06T19:21:13.760Z,73.39
2022-11-06T19:23:41.192Z,73.30
2022-11-06T19:26:30.071Z,73.07
2022-11-06T19:28:57.407Z,73.13
2022-11-06T19:31:28.955Z,72.82
2022-11-06T19:33:56.424Z,72.66
2022-11-06T19:36:25.724Z,72.38
2022-11-06T19:38:52.886Z,72.43
2022-11-06T19:41:19.998Z,72.53
2022-11-06T19:43:49.012Z,72.60
2022-11-06T19:46:23.881Z,72.56
2022-11-06T19:48:58.592Z,72.55
2022-11-06T19:51:26.004Z,72.69
2022-11-06T19:53:53.336Z,72.96
2022-11-06T19:56:20.082Z,72.84
2022-11-06T19:58:48.525Z,72.95
2022-11-06T20:01:18.268Z,73.05
2022-11-06T20:03:47.667Z,73.35
2022-11-06T20:06:17.027Z,73.30
2022-11-06T20:08:43.894Z,73.51
2022-11-06T20:11:16.489Z,73.68
2022-11-06T20:13:45.841Z,73.63
2022-11-06T20:16:16.390Z,73.67
2022-11-06T20:18:43.914Z,73.47
2022-11-06T20:21:11.044Z,73.54
2022-11-06T20:23:37.855Z,73.32
2022-11-06T20:26:04.962Z,73.49
2022-11-06T20:28:34.273Z,73.42
2022-11-06T20:31:04.602Z,73.43
2022-11-06T20:33:33.603Z,73.73
2022-11-06T20:36:08.090Z,74.29
2022-11-06T20:38:34.695Z,75.13
2022-11-06T20:41:01.264Z,75.13
2022-11-06T20:43:27.785Z,75.00
2022-11-06T20:45:54.442Z,75.29
2022-11-06T20:48:20.932Z,75.26
2022-11-06T20:51:00.226Z,75.12
2022-11-06T20:53:29.362Z,75.18
2022-11-06T20:56:01.293Z,75.36
2022-11-06T20:58:28.372Z,75.59
2022-11-06T21:01:07.449Z,75.48
2022-11-06T21:03:34.273Z,75.42
2022-11-06T21:06:03.353Z,75.33
2022-11-06T21:08:31.427Z,75.37
2022-11-06T21:11:05.934Z,75.22
2022-11-06T21:13:35.739Z,75.00
2022-11-06T21:16:06.121Z,74.84
2022-11-06T21:18:34.683Z,74.52
2022-11-06T21:21:02.464Z,74.44
2022-11-06T21:23:29.063Z,74.59
2022-11-06T21:25:55.591Z,74.73
2022-11-06T21:28:24.276Z,74.64
2022-11-06T21:30:50.848Z,74.44
2022-11-06T21:33:19.468Z,74.66
2022-11-06T21:35:46.088Z,75.50
2022-11-06T21:38:12.709Z,75.81
2022-11-06T21:40:41.519Z,75.57
2022-11-06T21:43:08.085Z,75.40
2022-11-06T21:45:35.062Z,74.99
2022-11-06T21:48:01.696Z,74.68
2022-11-06T21:50:30.260Z,74.67
2022-11-06T21:53:15.402Z,74.33
2022-11-06T21:56:00.823Z,74.14
2022-11-06T21:58:29.463Z,74.17
2022-11-06T22:00:56.093Z,73.95
2022-11-06T22:03:22.723Z,73.79
2022-11-06T22:05:49.330Z,73.52
2022-11-06T22:08:16.164Z,73.83
2022-11-06T22:10:45.478Z,73.82
2022-11-06T22:13:12.405Z,73.71
2022-11-06T22:15:41.781Z,73.54
2022-11-06T22:18:11.677Z,73.19
2022-11-06T22:20:38.427Z,73.25
2022-11-06T22:23:05.072Z,73.15
2022-11-06T22:25:31.582Z,73.15
2022-11-06T22:27:58.167Z,73.14
2022-11-06T22:30:26.838Z,73.23
2022-11-06T22:32:53.354Z,73.30
2022-11-06T22:35:19.946Z,73.45
2022-11-06T22:37:46.530Z,73.43
2022-11-06T22:40:13.051Z,73.39
2022-11-06T22:42:42.152Z,73.37
2022-11-06T22:45:11.290Z,73.44
2022-11-06T22:47:40.201Z,73.34
2022-11-06T22:50:06.911Z,73.51
2022-11-06T22:52:33.470Z,73.47
2022-11-06T22:54:59.978Z,73.37
2022-11-06T22:57:26.554Z,73.27
2022-11-06T22:59:53.459Z,72.85
2022-11-06T23:02:20.137Z,73.00
2022-11-06T23:04:49.185Z,72.82
2022-11-06T23:07:15.719Z,72.75
2022-11-06T23:09:44.275Z,72.62
2022-11-06T23:12:10.768Z,72.38
2022-11-06T23:14:39.768Z,72.04
2022-11-06T23:17:06.432Z,72.08
2022-11-06T23:19:33.135Z,71.87
2022-11-06T23:22:29.040Z,71.74
2022-11-06T23:24:56.114Z,71.73
2022-11-06T23:27:23.819Z,71.90
2022-11-06T23:30:00.349Z,72.10
2022-11-06T23:32:32.661Z,71.96
2022-11-06T23:34:59.333Z,71.74
2022-11-06T23:37:25.998Z,71.80
2022-11-06T23:39:55.010Z,71.86
2022-11-06T23:42:21.829Z,71.91
2022-11-06T23:45:07.158Z,71.93
2022-11-06T23:47:34.230Z,71.81
2022-11-06T23:50:00.846Z,71.68
2022-11-06T23:52:27.825Z,71.55
2022-11-06T23:54:54.563Z,71.39
2022-11-06T23:57:23.557Z,71.44
2022-11-06T23:59:50.578Z,71.65
